Time;durP1;ratioP1;P1;durP2;ratioP2;P2;SDS_P1;SDS_P2;PMS_P1;PMS_P2;Temp;Humidity;BMP_temperature;BMP_pressure;BME280_temperature;BME280_humidity;BME280_pressure;Samples;Min_cycle;Max_cycle;Signal;HPM_P1;HPM_P2
2023/10/30 00:00:16;;;;;;;5.57;4.43;;;;;;;13.99;100.00;97172.66;4191386;28;20611;-84
2023/10/30 00:02:21;;;;;;;5.20;4.57;;;;;;;13.99;100.00;97180.53;4194369;28;20625;-83
2023/10/30 00:04:26;;;;;;;5.00;4.07;;;;;;;14.01;100.00;97181.22;4181169;28;20621;-83
2023/10/30 00:06:31;;;;;;;6.70;4.00;;;;;;;14.02;100.00;97187.28;4180260;28;21034;-83
2023/10/30 00:08:40;;;;;;;4.10;3.33;;;;;;;14.03;100.00;97191.56;4172810;28;20632;-83
2023/10/30 00:10:43;;;;;;;5.20;3.50;;;;;;;14.02;100.00;97197.78;4176607;28;20629;-84
2023/10/30 00:13:06;;;;;;;3.70;2.60;;;;;;;14.02;100.00;97193.34;4177895;28;20626;-83
2023/10/30 00:15:30;;;;;;;3.33;2.73;;;;;;;14.04;100.00;97212.38;4165777;28;21226;-83
2023/10/30 00:17:35;;;;;;;3.13;2.50;;;;;;;14.05;100.00;97203.56;4176450;28;20755;-83
2023/10/30 00:19:41;;;;;;;3.90;3.40;;;;;;;14.06;100.00;97213.09;4170576;28;20642;-84
2023/10/30 00:22:01;;;;;;;4.03;2.90;;;;;;;14.00;100.00;97204.97;4201882;28;20662;-83
2023/10/30 00:24:10;;;;;;;5.27;2.80;;;;;;;13.97;100.00;97192.16;4193111;28;20620;-84
2023/10/30 00:26:15;;;;;;;3.97;2.47;;;;;;;13.94;100.00;97180.16;4197977;28;20630;-84
2023/10/30 00:28:33;;;;;;;4.83;2.30;;;;;;;13.91;100.00;97190.94;4162911;28;20714;-83
2023/10/30 00:30:37;;;;;;;3.37;2.50;;;;;;;13.94;100.00;97200.31;4207417;28;20640;-84
2023/10/30 00:32:42;;;;;;;6.53;3.03;;;;;;;13.97;100.00;97206.09;4162662;28;20637;-83
2023/10/30 00:34:46;;;;;;;4.27;2.20;;;;;;;14.00;100.00;97216.28;4162864;28;21288;-83
2023/10/30 00:36:49;;;;;;;3.33;1.93;;;;;;;14.02;100.00;97214.31;4171004;28;20708;-83
2023/10/30 00:38:53;;;;;;;2.90;2.13;;;;;;;14.03;100.00;97197.63;4180566;28;20636;-84
2023/10/30 00:40:56;;;;;;;3.63;1.80;;;;;;;14.02;100.00;97209.06;4176513;28;20626;-83
2023/10/30 00:42:59;;;;;;;5.13;2.13;;;;;;;14.04;100.00;97208.94;4206988;28;20643;-83
2023/10/30 00:45:04;;;;;;;2.50;1.40;;;;;;;14.07;100.00;97206.84;4179584;28;20666;-83
2023/10/30 00:47:07;;;;;;;3.30;1.80;;;;;;;14.09;100.00;97204.94;4180495;28;20635;-83
2023/10/30 00:49:09;;;;;;;3.20;2.37;;;;;;;14.13;100.00;97203.66;4167214;28;20631;-83
2023/10/30 00:51:16;;;;;;;2.47;1.83;;;;;;;14.14;100.00;97213.19;4161779;28;20627;-83
2023/10/30 00:53:19;;;;;;;2.47;1.70;;;;;;;14.17;100.00;97218.13;4156795;28;20718;-84
2023/10/30 00:55:22;;;;;;;3.40;2.10;;;;;;;14.17;100.00;97218.13;4174182;28;20651;-84
2023/10/30 00:57:25;;;;;;;2.83;1.70;;;;;;;14.16;100.00;97227.81;4207866;28;20652;-83
2023/10/30 00:59:29;;;;;;;2.57;1.70;;;;;;;14.17;100.00;97237.31;4178108;28;20632;-84
2023/10/30 01:01:32;;;;;;;4.23;1.70;;;;;;;14.18;100.00;97240.78;4184726;28;20725;-83
2023/10/30 01:03:37;;;;;;;2.33;1.40;;;;;;;14.18;100.00;97240.78;4189025;28;20728;-83
2023/10/30 01:05:41;;;;;;;3.87;1.70;;;;;;;14.15;100.00;97248.94;4184041;28;20634;-84
2023/10/30 01:07:45;;;;;;;4.77;2.20;;;;;;;14.13;100.00;97243.84;4192258;28;21200;-84
2023/10/30 01:09:49;;;;;;;3.40;2.80;;;;;;;14.05;100.00;97247.34;4175816;28;20636;-84
2023/10/30 01:11:52;;;;;;;4.00;2.80;;;;;;;14.00;100.00;97255.59;4172779;28;20626;-83
2023/10/30 01:13:55;;;;;;;3.20;2.60;;;;;;;13.99;100.00;97253.13;4177359;28;20635;-83
2023/10/30 01:15:59;;;;;;;4.00;3.03;;;;;;;14.02;100.00;97252.84;4179190;28;20635;-83
2023/10/30 01:18:02;;;;;;;2.93;2.60;;;;;;;14.01;100.00;97259.88;4191975;28;20677;-83
2023/10/30 01:20:06;;;;;;;3.07;2.30;;;;;;;14.03;100.00;97263.19;4179147;28;21049;-84
2023/10/30 01:22:09;;;;;;;3.50;2.37;;;;;;;14.03;100.00;97262.38;4193952;28;20628;-84
2023/10/30 01:24:14;;;;;;;3.00;2.70;;;;;;;14.03;100.00;97262.38;4162450;28;20623;-83
2023/10/30 01:26:17;;;;;;;3.37;2.80;;;;;;;14.01;100.00;97246.78;4191613;28;20632;-83
2023/10/30 01:28:20;;;;;;;3.33;3.03;;;;;;;13.98;100.00;97243.59;4176178;28;21870;-83
2023/10/30 01:30:23;;;;;;;5.43;3.17;;;;;;;13.92;100.00;97249.44;4163941;28;20736;-84
2023/10/30 01:32:27;;;;;;;4.50;2.90;;;;;;;13.93;100.00;97238.78;4180393;28;20622;-83
2023/10/30 01:34:30;;;;;;;4.50;2.90;;;;;;;13.97;100.00;97239.34;4163426;28;20625;-83
2023/10/30 01:36:34;;;;;;;4.37;3.07;;;;;;;13.99;100.00;97247.88;4191101;28;20657;-84
2023/10/30 01:38:36;;;;;;;2.87;2.43;;;;;;;14.00;100.00;97250.34;4198375;28;20723;-83
2023/10/30 01:40:48;;;;;;;3.37;2.30;;;;;;;13.99;100.00;97246.06;4163420;28;20693;-83
2023/10/30 01:42:53;;;;;;;3.20;2.30;;;;;;;14.00;100.00;97255.59;4175453;28;20709;-83
2023/10/30 01:44:57;;;;;;;3.20;2.53;;;;;;;14.01;100.00;97262.50;4188379;28;20668;-83
2023/10/30 01:47:00;;;;;;;2.53;2.00;;;;;;;14.03;100.00;97270.22;4175155;28;20721;-83
2023/10/30 01:49:03;;;;;;;5.60;2.47;;;;;;;14.03;100.00;97257.94;4154964;28;20663;-83
2023/10/30 01:51:06;;;;;;;4.10;2.33;;;;;;;14.06;100.00;97273.41;4179499;28;20643;-83
2023/10/30 01:53:09;;;;;;;3.13;2.50;;;;;;;14.07;100.00;97261.94;4177392;28;20728;-83
2023/10/30 01:55:13;;;;;;;2.60;1.80;;;;;;;14.07;100.00;97267.16;4161962;28;20745;-83
2023/10/30 01:57:19;;;;;;;2.83;1.83;;;;;;;14.08;100.00;97263.59;4175260;28;21166;-84
2023/10/30 01:59:23;;;;;;;2.73;2.00;;;;;;;14.06;100.00;97256.81;4158825;28;20749;-84
2023/10/30 02:01:27;;;;;;;4.30;3.10;;;;;;;14.01;100.00;97254.66;4202694;28;20631;-83
2023/10/30 02:03:30;;;;;;;8.10;6.30;;;;;;;13.97;100.00;97263.75;4193028;28;20709;-84
2023/10/30 02:05:32;;;;;;;13.10;7.60;;;;;;;13.99;100.00;97271.47;4192429;28;20624;-84
2023/10/30 02:07:36;;;;;;;5.80;3.40;;;;;;;14.01;100.00;97265.13;4153797;28;20674;-83
2023/10/30 02:09:39;;;;;;;3.83;2.37;;;;;;;14.03;100.00;97251.88;4209748;28;20616;-83
2023/10/30 02:11:43;;;;;;;3.30;2.63;;;;;;;14.03;100.00;97263.19;4176820;28;20721;-83
2023/10/30 02:13:55;;;;;;;2.83;2.30;;;;;;;14.03;100.00;97257.94;4175087;28;21273;-84
2023/10/30 02:15:59;;;;;;;3.07;2.20;;;;;;;14.04;100.00;97261.38;4171497;28;20656;-83
2023/10/30 02:18:02;;;;;;;2.57;1.93;;;;;;;14.04;100.00;97253.50;4155347;28;20696;-83
2023/10/30 02:20:06;;;;;;;2.70;1.87;;;;;;;14.03;100.00;97250.06;4177942;28;20678;-83
2023/10/30 02:22:09;;;;;;;2.60;1.50;;;;;;;14.03;100.00;97242.19;4206161;28;20693;-84
2023/10/30 02:24:13;;;;;;;2.10;1.80;;;;;;;14.03;100.00;97236.97;4163564;28;20622;-83
2023/10/30 02:26:18;;;;;;;2.80;1.87;;;;;;;14.05;100.00;97240.28;4189379;28;20683;-83
2023/10/30 02:28:21;;;;;;;3.30;2.20;;;;;;;14.08;100.00;97240.00;4189114;28;20655;-84
2023/10/30 02:30:25;;;;;;;3.53;2.10;;;;;;;14.09;100.00;97231.16;4191691;28;20663;-83
2023/10/30 02:32:28;;;;;;;2.40;2.00;;;;;;;14.09;100.00;97228.53;4192909;28;20630;-84
2023/10/30 02:34:31;;;;;;;2.20;1.63;;;;;;;14.09;100.00;97217.19;4188453;28;20627;-83
2023/10/30 02:36:36;;;;;;;3.20;1.93;;;;;;;14.08;100.00;97215.56;4159628;28;20622;-84
2023/10/30 02:38:39;;;;;;;2.83;1.90;;;;;;;14.05;100.00;97211.44;4207921;28;20656;-83
2023/10/30 02:40:42;;;;;;;2.00;1.50;;;;;;;14.02;100.00;97214.31;4177013;28;20623;-84
2023/10/30 02:42:50;;;;;;;4.60;2.10;;;;;;;14.02;100.00;97222.19;4175402;28;20617;-84
2023/10/30 02:44:53;;;;;;;2.67;1.30;;;;;;;13.97;100.00;97216.56;4186070;28;21228;-84
2023/10/30 02:46:56;;;;;;;2.37;1.67;;;;;;;13.97;100.00;97223.63;4176074;28;20683;-84
2023/10/30 02:48:59;;;;;;;3.90;1.70;;;;;;;13.96;100.00;97219.34;4160324;28;20673;-83
2023/10/30 02:51:02;;;;;;;2.17;1.67;;;;;;;13.96;100.00;97220.16;4194744;28;20633;-83
2023/10/30 02:53:06;;;;;;;3.67;1.80;;;;;;;13.96;100.00;97220.16;4189367;28;20627;-83
2023/10/30 02:55:10;;;;;;;2.50;1.87;;;;;;;13.96;100.00;97216.72;4170621;28;21191;-84
2023/10/30 02:57:14;;;;;;;5.03;1.67;;;;;;;13.96;100.00;97224.56;4156881;28;20640;-83
2023/10/30 02:59:18;;;;;;;2.87;1.70;;;;;;;13.94;100.00;97224.72;4184423;28;20663;-83
2023/10/30 03:01:22;;;;;;;3.73;1.60;;;;;;;13.91;100.00;97222.41;4170920;28;20682;-83
2023/10/30 03:03:25;;;;;;;3.00;1.00;;;;;;;13.89;100.00;97216.47;4191729;28;20630;-83
2023/10/30 03:05:28;;;;;;;2.90;1.20;;;;;;;13.90;100.00;97210.25;4191754;28;20684;-83
2023/10/30 03:07:31;;;;;;;2.63;1.43;;;;;;;13.90;100.00;97201.56;4190308;28;21150;-83
2023/10/30 03:09:37;;;;;;;1.67;0.90;;;;;;;13.89;100.00;97194.66;4170931;28;20630;-83
2023/10/30 03:11:40;;;;;;;4.00;1.00;;;;;;;13.87;100.00;97191.38;4168460;28;21398;-83
2023/10/30 03:13:43;;;;;;;2.03;1.10;;;;;;;13.85;100.00;97194.16;4175767;28;20672;-83
2023/10/30 03:15:49;;;;;;;1.40;1.00;;;;;;;13.83;100.00;97196.09;4175401;28;20637;-83
2023/10/30 03:17:52;;;;;;;2.23;1.20;;;;;;;13.84;100.00;97200.34;4175229;28;20654;-83
2023/10/30 03:19:55;;;;;;;2.37;1.10;;;;;;;13.85;100.00;97204.63;4164784;28;20659;-84
2023/10/30 03:21:58;;;;;;;1.60;1.20;;;;;;;13.86;100.00;97194.97;4176978;28;21053;-83
2023/10/30 03:24:01;;;;;;;1.67;1.00;;;;;;;13.85;100.00;97191.53;4161837;28;20650;-83
2023/10/30 03:26:04;;;;;;;1.33;0.70;;;;;;;13.85;100.00;97202.00;4192303;28;20652;-83
2023/10/30 03:28:07;;;;;;;1.70;1.00;;;;;;;13.83;100.00;97201.34;4159900;28;20622;-83
2023/10/30 03:30:11;;;;;;;1.40;0.73;;;;;;;13.83;100.00;97208.34;4163426;28;21206;-83
2023/10/30 03:32:15;;;;;;;2.03;0.83;;;;;;;13.83;100.00;97211.81;4163820;28;20633;-84
2023/10/30 03:34:19;;;;;;;2.13;0.80;;;;;;;13.82;100.00;97207.53;4176856;28;20704;-83
2023/10/30 03:36:23;;;;;;;2.73;0.70;;;;;;;13.84;100.00;97212.63;4193430;28;20636;-83
2023/10/30 03:38:27;;;;;;;3.13;1.00;;;;;;;13.83;100.00;97205.72;4178758;28;20618;-83
2023/10/30 03:40:31;;;;;;;2.43;0.83;;;;;;;13.83;100.00;97209.19;4175213;28;20698;-83
2023/10/30 03:42:34;;;;;;;2.10;0.83;;;;;;;13.84;100.00;97194.28;4175242;28;20617;-83
2023/10/30 03:44:38;;;;;;;2.20;0.93;;;;;;;13.85;100.00;97181.03;4196213;28;20628;-83
2023/10/30 03:46:41;;;;;;;1.63;0.90;;;;;;;13.83;100.00;97169.88;4193813;28;20650;-83
2023/10/30 03:48:46;;;;;;;1.70;0.77;;;;;;;13.81;100.00;97178.84;4160977;28;20660;-84
2023/10/30 03:50:50;;;;;;;1.87;0.93;;;;;;;13.79;100.00;97176.38;4175010;28;21074;-83
2023/10/30 03:52:54;;;;;;;4.03;0.90;;;;;;;13.78;100.00;97184.38;4188160;28;20627;-84
2023/10/30 03:55:03;;;;;;;5.90;0.80;;;;;;;13.77;100.00;97170.47;4175649;28;20686;-83
2023/10/30 03:57:08;;;;;;;1.30;0.60;;;;;;;13.77;100.00;97178.34;4196164;28;20743;-83
2023/10/30 03:59:12;;;;;;;4.90;0.87;;;;;;;13.74;100.00;97165.53;4192736;28;20735;-83
2023/10/30 04:01:15;;;;;;;1.57;0.63;;;;;;;13.73;100.00;97173.53;4189607;28;20704;-83
2023/10/30 04:03:18;;;;;;;4.93;0.90;;;;;;;13.71;100.00;97173.69;4197896;28;20710;-83
2023/10/30 04:05:22;;;;;;;1.30;0.83;;;;;;;13.71;100.00;97171.06;4187656;28;20620;-83
2023/10/30 04:07:25;;;;;;;2.10;0.60;;;;;;;13.70;100.00;97155.47;4178541;28;20744;-83
2023/10/30 04:09:28;;;;;;;2.30;0.80;;;;;;;13.66;100.00;97148.88;4179340;28;20657;-83
2023/10/30 04:11:32;;;;;;;1.80;0.63;;;;;;;13.64;100.00;97156.88;4173443;28;20625;-84
2023/10/30 04:13:35;;;;;;;1.60;0.80;;;;;;;13.64;100.00;97150.00;4206258;28;20648;-84
2023/10/30 04:15:38;;;;;;;1.17;0.60;;;;;;;13.65;100.00;97144.59;4191938;28;20666;-83
2023/10/30 04:17:42;;;;;;;1.20;0.70;;;;;;;13.64;100.00;97145.56;4182283;28;20631;-83
2023/10/30 04:19:45;;;;;;;3.60;0.80;;;;;;;13.64;100.00;97144.75;4162864;28;20752;-83
2023/10/30 04:21:50;;;;;;;2.23;0.80;;;;;;;13.63;100.00;97135.25;4176193;28;20666;-83
2023/10/30 04:23:54;;;;;;;1.30;0.53;;;;;;;13.61;100.00;97134.56;4182444;28;20704;-83
2023/10/30 04:25:57;;;;;;;1.60;0.53;;;;;;;13.59;100.00;97141.75;4181295;28;20716;-83
2023/10/30 04:28:00;;;;;;;1.60;0.60;;;;;;;13.59;100.00;97141.75;4174252;28;20667;-83
2023/10/30 04:30:05;;;;;;;1.57;0.60;;;;;;;13.58;100.00;97135.69;4162372;28;20631;-83
2023/10/30 04:32:09;;;;;;;2.13;0.60;;;;;;;13.56;100.00;97139.41;4201187;28;20627;-83
2023/10/30 04:34:12;;;;;;;1.73;0.80;;;;;;;13.53;100.00;97144.94;4166580;28;21575;-83
2023/10/30 04:36:15;;;;;;;1.10;0.53;;;;;;;13.50;100.00;97145.22;4164594;28;20732;-83
2023/10/30 04:38:20;;;;;;;1.97;1.30;;;;;;;13.47;100.00;97138.50;4172634;28;20629;-83
2023/10/30 04:40:23;;;;;;;2.57;1.70;;;;;;;13.47;100.00;97137.66;4194076;28;21064;-83
2023/10/30 04:42:27;;;;;;;3.70;1.93;;;;;;;13.44;100.00;97143.19;4193156;28;20678;-83
2023/10/30 04:44:31;;;;;;;6.83;2.70;;;;;;;13.40;100.00;97132.19;4193627;28;21200;-83
2023/10/30 04:46:36;;;;;;;12.37;3.30;;;;;;;13.37;100.00;97132.47;4179949;28;20624;-83
2023/10/30 04:48:39;;;;;;;27.33;4.80;;;;;;;13.34;100.00;97137.19;4168056;28;21206;-83
2023/10/30 04:50:41;;;;;;;28.43;4.33;;;;;;;13.31;100.00;97137.47;4177264;28;20593;-83
2023/10/30 04:52:44;;;;;;;19.47;4.30;;;;;;;13.29;100.00;97128.91;4179058;28;20624;-83
2023/10/30 04:54:49;;;;;;;15.47;4.37;;;;;;;13.29;100.00;97119.28;4176940;28;20643;-82
2023/10/30 04:56:53;;;;;;;21.23;4.87;;;;;;;13.28;100.00;97119.44;4193564;28;20943;-83
2023/10/30 04:58:56;;;;;;;15.17;4.00;;;;;;;13.26;100.00;97121.34;4175960;28;20607;-83
2023/10/30 05:01:00;;;;;;;19.87;3.67;;;;;;;13.21;100.00;97113.13;4190793;28;20665;-83
2023/10/30 05:03:04;;;;;;;23.97;4.60;;;;;;;13.18;100.00;97113.41;4175813;28;20743;-83
2023/10/30 05:05:08;;;;;;;25.10;4.30;;;;;;;13.18;100.00;97120.44;4193431;28;20662;-83
2023/10/30 05:07:11;;;;;;;16.13;4.47;;;;;;;13.14;100.00;97113.84;4171998;28;20632;-83
2023/10/30 05:09:15;;;;;;;38.60;5.37;;;;;;;13.11;100.00;97114.13;4178035;28;20648;-83
2023/10/30 05:11:20;;;;;;;27.97;4.73;;;;;;;13.08;100.00;97122.25;4163918;28;20629;-83
2023/10/30 05:13:23;;;;;;;18.37;5.40;;;;;;;13.05;100.00;97119.94;4176797;28;20656;-83
2023/10/30 05:15:27;;;;;;;15.53;4.23;;;;;;;13.02;100.00;97121.06;4195274;28;20647;-83
2023/10/30 05:17:30;;;;;;;26.43;4.40;;;;;;;13.01;100.00;97124.63;4189223;28;20627;-83
2023/10/30 05:19:33;;;;;;;17.47;3.80;;;;;;;13.02;100.00;97135.91;4165247;28;20622;-82
2023/10/30 05:21:36;;;;;;;26.13;3.70;;;;;;;13.00;100.00;97138.69;4191091;28;21072;-82
2023/10/30 05:23:40;;;;;;;22.60;4.20;;;;;;;12.99;100.00;97138.81;4207554;28;20748;-83
2023/10/30 05:25:43;;;;;;;16.63;4.17;;;;;;;12.97;100.00;97138.16;4160717;28;20629;-83
2023/10/30 05:27:48;;;;;;;12.30;3.70;;;;;;;12.95;100.00;97140.91;4179379;28;20625;-83
2023/10/30 05:29:51;;;;;;;12.80;3.67;;;;;;;12.94;100.00;97144.50;4165191;28;21078;-83
2023/10/30 05:31:54;;;;;;;12.93;4.00;;;;;;;12.95;100.00;97143.53;4189566;28;20998;-83
2023/10/30 05:33:59;;;;;;;4.93;2.90;;;;;;;12.95;100.00;97135.69;4164254;28;21062;-83
2023/10/30 05:36:02;;;;;;;21.57;3.93;;;;;;;12.92;100.00;97120.25;4196103;28;20977;-83
2023/10/30 05:38:06;;;;;;;11.30;4.00;;;;;;;12.93;100.00;97110.59;4194037;28;20628;-83
2023/10/30 05:40:11;;;;;;;10.70;3.97;;;;;;;12.93;100.00;97115.84;4174909;28;20636;-83
2023/10/30 05:42:14;;;;;;;11.33;3.57;;;;;;;12.91;100.00;97104.69;4171090;28;20629;-83
2023/10/30 05:44:20;;;;;;;19.90;3.93;;;;;;;12.88;100.00;97102.38;4190752;28;20682;-83
2023/10/30 05:46:23;;;;;;;8.93;4.10;;;;;;;12.87;100.00;97101.56;4180208;28;21027;-83
2023/10/30 05:48:27;;;;;;;9.97;3.27;;;;;;;12.83;100.00;97099.34;4189096;28;20623;-83
2023/10/30 05:50:29;;;;;;;6.77;3.10;;;;;;;12.78;100.00;97099.75;4202678;28;20718;-86
2023/10/30 05:52:32;;;;;;;14.50;3.00;;;;;;;12.74;100.00;97101.00;4164193;28;20633;-85
2023/10/30 05:54:36;;;;;;;4.83;2.57;;;;;;;12.72;100.00;97096.91;4157940;28;20626;-85
2023/10/30 05:56:40;;;;;;;5.10;2.63;;;;;;;12.68;100.00;97100.75;4156155;28;20637;-85
2023/10/30 05:58:49;;;;;;;13.67;3.20;;;;;;;12.65;100.00;97097.59;4191288;28;20615;-85
2023/10/30 06:00:54;;;;;;;11.30;3.97;;;;;;;12.62;100.00;97092.66;4203776;28;21263;-85
2023/10/30 06:02:57;;;;;;;8.97;3.53;;;;;;;12.61;100.00;97096.22;4204169;28;21982;-85
2023/10/30 06:05:01;;;;;;;14.03;3.70;;;;;;;12.58;100.00;97096.50;4190399;28;20639;-85
2023/10/30 06:07:04;;;;;;;9.70;3.60;;;;;;;12.54;100.00;97077.66;4190735;28;21243;-85
2023/10/30 06:09:08;;;;;;;3.47;3.17;;;;;;;12.52;100.00;97084.00;4177016;28;20620;-85
2023/10/30 06:11:11;;;;;;;3.20;2.77;;;;;;;12.51;100.00;97084.94;4177045;28;20795;-85
2023/10/30 06:13:15;;;;;;;3.37;2.30;;;;;;;12.48;100.00;97086.06;4191651;28;20644;-86
2023/10/30 06:15:18;;;;;;;3.57;2.83;;;;;;;12.44;100.00;97083.88;4163392;28;20629;-85
2023/10/30 06:17:23;;;;;;;3.87;2.77;;;;;;;12.42;100.00;97083.19;4191907;28;20601;-86
2023/10/30 06:19:28;;;;;;;3.10;2.60;;;;;;;12.41;100.00;97077.13;4175519;28;20638;-85
2023/10/30 06:21:30;;;;;;;3.10;2.80;;;;;;;12.40;100.00;97072.03;4174394;28;20684;-86
2023/10/30 06:23:34;;;;;;;17.73;3.60;;;;;;;12.37;100.00;97072.31;4193232;28;20612;-86
2023/10/30 06:25:38;;;;;;;3.20;2.40;;;;;;;12.38;100.00;97068.75;4191951;28;20636;-85
2023/10/30 06:27:42;;;;;;;3.40;2.47;;;;;;;12.40;100.00;97079.88;4174593;28;20629;-85
2023/10/30 06:29:46;;;;;;;2.77;2.10;;;;;;;12.49;100.00;97079.03;4187243;28;20669;-85
2023/10/30 06:31:49;;;;;;;3.47;2.40;;;;;;;12.53;100.00;97090.88;4177731;28;20663;-85
2023/10/30 06:33:54;;;;;;;3.07;2.33;;;;;;;12.52;100.00;97084.00;4177851;28;20640;-85
2023/10/30 06:36:00;;;;;;;2.60;2.20;;;;;;;12.51;100.00;97084.94;4172753;28;20627;-86
2023/10/30 06:38:03;;;;;;;4.10;2.87;;;;;;;12.53;100.00;97078.63;4192557;28;20631;-85
2023/10/30 06:40:08;;;;;;;13.50;6.40;;;;;;;12.57;100.00;97081.75;4166254;28;20646;-85
2023/10/30 06:42:11;;;;;;;11.53;4.87;;;;;;;12.60;100.00;97081.47;4169580;28;20657;-86
2023/10/30 06:44:14;;;;;;;6.00;2.43;;;;;;;12.60;100.00;97081.47;4176756;28;20620;-85
2023/10/30 06:46:20;;;;;;;4.73;2.20;;;;;;;12.56;100.00;97082.75;4194990;28;20639;-85
2023/10/30 06:48:22;;;;;;;5.23;2.10;;;;;;;12.55;100.00;97076.66;4175242;28;20628;-85
2023/10/30 06:50:28;;;;;;;6.03;2.10;;;;;;;12.60;100.00;97074.47;4205038;28;20736;-86
2023/10/30 06:52:30;;;;;;;5.17;2.43;;;;;;;12.68;100.00;97084.22;4161328;28;20661;-85
2023/10/30 06:54:33;;;;;;;4.37;3.30;;;;;;;12.81;100.00;97077.72;4176223;28;20630;-86
2023/10/30 06:56:36;;;;;;;7.63;3.30;;;;;;;12.97;100.00;97081.38;4162009;28;20618;-86
2023/10/30 06:58:40;;;;;;;12.63;3.40;;;;;;;13.02;100.00;97087.03;4180257;28;20671;-85
2023/10/30 07:00:43;;;;;;;12.30;2.90;;;;;;;13.02;100.00;97089.66;4168039;28;21209;-86
2023/10/30 07:02:47;;;;;;;10.27;2.83;;;;;;;12.96;100.00;97100.69;4192012;28;20662;-86
2023/10/30 07:04:50;;;;;;;13.57;3.20;;;;;;;12.86;100.00;97092.03;4159012;28;20625;-86
2023/10/30 07:06:55;;;;;;;16.97;3.10;;;;;;;12.77;100.00;97092.88;4170267;28;20708;-85
2023/10/30 07:08:58;;;;;;;10.67;3.30;;;;;;;12.72;100.00;97107.34;4160061;28;20679;-85
2023/10/30 07:11:04;;;;;;;8.17;3.07;;;;;;;12.70;100.00;97104.88;4191947;28;20628;-86
2023/10/30 07:13:08;;;;;;;11.40;3.27;;;;;;;12.71;100.00;97098.66;4154996;28;21337;-85
2023/10/30 07:15:11;;;;;;;18.90;3.83;;;;;;;12.74;100.00;97101.00;4190908;28;20616;-85
2023/10/30 07:17:15;;;;;;;20.30;4.00;;;;;;;12.78;100.00;97105.00;4187577;28;20616;-85
2023/10/30 07:19:22;;;;;;;30.83;4.63;;;;;;;12.84;100.00;97107.06;4150406;28;21225;-85
2023/10/30 07:21:26;;;;;;;23.27;4.37;;;;;;;12.92;100.00;97116.81;4154629;28;20690;-86
2023/10/30 07:23:31;;;;;;;28.93;4.53;;;;;;;12.89;100.00;97110.06;4174224;28;20647;-85
2023/10/30 07:25:34;;;;;;;33.33;4.43;;;;;;;12.92;100.00;97108.97;4186748;28;21250;-86
2023/10/30 07:27:38;;;;;;;26.80;4.30;;;;;;;12.93;100.00;97110.59;4173512;28;20740;-85
2023/10/30 07:29:41;;;;;;;15.67;4.03;;;;;;;12.96;100.00;97116.41;4192051;28;20627;-85
2023/10/30 07:31:45;;;;;;;14.33;3.80;;;;;;;13.02;100.00;97120.22;4166205;28;20719;-85
2023/10/30 07:33:49;;;;;;;25.97;4.30;;;;;;;13.07;100.00;97120.63;4172681;28;20620;-85
2023/10/30 07:35:53;;;;;;;44.70;4.67;;;;;;;13.14;100.00;97117.31;4181130;28;20753;-85
2023/10/30 07:37:57;;;;;;;51.97;4.90;;;;;;;13.15;100.00;97126.78;4156744;28;20696;-86
2023/10/30 07:40:02;;;;;;;26.23;4.03;;;;;;;13.18;100.00;97121.25;4173645;28;20621;-86
2023/10/30 07:42:06;;;;;;;13.00;3.50;;;;;;;13.17;100.00;97127.47;4172283;28;20650;-85
2023/10/30 07:44:10;;;;;;;14.80;3.50;;;;;;;13.20;100.00;97119.34;4155990;28;20717;-86
2023/10/30 07:46:14;;;;;;;12.87;4.10;;;;;;;13.18;100.00;97117.81;4193812;28;20633;-86
2023/10/30 07:48:18;;;;;;;7.77;3.47;;;;;;;13.17;100.00;97113.53;4188338;28;20628;-86
2023/10/30 07:50:22;;;;;;;7.53;2.93;;;;;;;13.21;100.00;97120.97;4155946;28;20629;-85
2023/10/30 07:52:26;;;;;;;20.80;3.70;;;;;;;13.31;100.00;97116.53;4188892;28;21067;-86
2023/10/30 07:54:28;;;;;;;14.13;3.70;;;;;;;13.36;100.00;97103.81;4170601;28;21037;-86
2023/10/30 07:56:32;;;;;;;14.40;3.90;;;;;;;13.39;100.00;97108.75;4169871;28;20609;-86
2023/10/30 07:58:36;;;;;;;8.60;2.80;;;;;;;13.49;100.00;97107.75;4193517;28;20734;-86
2023/10/30 08:00:41;;;;;;;9.77;3.13;;;;;;;13.61;100.00;97113.63;4188939;28;20639;-86
2023/10/30 08:03:01;;;;;;;6.27;2.63;;;;;;;13.69;100.00;97117.94;4196316;28;20651;-86
2023/10/30 08:05:05;;;;;;;6.77;3.07;;;;;;;13.75;100.00;97108.69;4192225;28;20619;-86
2023/10/30 08:07:08;;;;;;;3.40;2.60;;;;;;;13.80;100.00;97104.66;4174330;28;20654;-86
2023/10/30 08:09:12;;;;;;;6.97;3.80;;;;;;;13.87;100.00;97103.06;4194302;28;20624;-85
2023/10/30 08:11:15;;;;;;;6.53;3.07;;;;;;;14.00;100.00;97098.28;4181984;28;20652;-86
2023/10/30 08:13:19;;;;;;;4.40;2.90;;;;;;;14.15;100.00;97104.69;4193969;28;21166;-85
2023/10/30 08:15:22;;;;;;;5.90;4.17;;;;;;;14.26;100.00;97102.66;4174374;28;20647;-86
2023/10/30 08:17:25;;;;;;;3.83;2.40;;;;;;;14.35;100.00;97106.16;4192342;28;20611;-86
2023/10/30 08:19:30;;;;;;;2.90;2.33;;;;;;;14.42;100.00;97096.72;4163789;28;20657;-86
2023/10/30 08:21:34;;;;;;;2.47;1.60;;;;;;;14.49;100.00;97093.31;4190191;28;20622;-85
2023/10/30 08:23:37;;;;;;;2.47;1.63;;;;;;;14.59;100.00;97094.06;4164458;28;21094;-85
2023/10/30 08:25:40;;;;;;;2.40;1.67;;;;;;;14.69;100.00;97100.84;4193554;28;20635;-86
2023/10/30 08:27:44;;;;;;;2.17;1.33;;;;;;;14.81;100.00;97098.81;4209435;28;20636;-86
2023/10/30 08:29:49;;;;;;;1.50;1.10;;;;;;;14.91;99.10;97087.19;4179281;28;20691;-85
2023/10/30 08:31:52;;;;;;;3.53;1.57;;;;;;;15.03;100.00;97093.81;4178063;28;20663;-86
2023/10/30 08:34:00;;;;;;;2.53;1.90;;;;;;;15.12;100.00;97083.22;4158899;28;20628;-86
2023/10/30 08:36:05;;;;;;;2.57;1.73;;;;;;;15.29;100.00;97084.13;4196136;28;20628;-83
2023/10/30 08:38:08;;;;;;;3.23;1.97;;;;;;;15.48;100.00;97076.00;4177931;28;20643;-83
2023/10/30 08:40:12;;;;;;;3.43;2.10;;;;;;;15.62;100.00;97081.47;4162608;28;20688;-83
2023/10/30 08:42:18;;;;;;;4.67;1.77;;;;;;;15.78;100.00;97082.31;4167520;28;20660;-83
2023/10/30 08:44:24;;;;;;;2.10;1.40;;;;;;;15.84;98.70;97080.88;4179220;28;20667;-84
2023/10/30 08:46:32;;;;;;;2.13;1.20;;;;;;;15.95;98.90;97075.28;4179471;28;20621;-84
2023/10/30 08:48:40;;;;;;;1.70;1.20;;;;;;;16.05;100.00;97080.22;4179220;28;20638;-83
2023/10/30 08:50:45;;;;;;;4.73;1.20;;;;;;;16.15;98.70;97080.09;4193490;28;21008;-83
2023/10/30 08:52:48;;;;;;;2.53;1.20;;;;;;;16.19;98.06;97086.66;4196652;28;20665;-83
2023/10/30 08:54:51;;;;;;;2.07;1.00;;;;;;;16.23;99.10;97077.50;4179800;28;20623;-84
2023/10/30 08:56:55;;;;;;;2.90;1.70;;;;;;;16.30;99.88;97079.31;4194124;28;21026;-83
2023/10/30 08:59:09;;;;;;;3.30;2.17;;;;;;;16.30;99.32;97075.88;4169566;28;20704;-83
2023/10/30 09:01:12;;;;;;;3.23;1.90;;;;;;;16.28;99.24;97075.19;4195203;28;20634;-83
2023/10/30 09:03:16;;;;;;;4.20;1.97;;;;;;;16.32;98.59;97065.97;4181948;28;20695;-84
2023/10/30 09:05:20;;;;;;;4.27;1.80;;;;;;;16.37;97.56;97066.31;4190541;28;20705;-83
2023/10/30 09:07:23;;;;;;;2.10;1.70;;;;;;;16.43;99.86;97066.44;4178582;28;20627;-84
2023/10/30 09:09:25;;;;;;;2.90;1.77;;;;;;;16.42;99.30;97071.88;4188924;28;20606;-83
2023/10/30 09:11:29;;;;;;;2.50;1.60;;;;;;;16.44;97.77;97062.03;4179611;28;20735;-84
2023/10/30 09:13:33;;;;;;;2.20;1.70;;;;;;;16.50;99.41;97065.63;4179077;28;21191;-83
2023/10/30 09:15:36;;;;;;;2.97;1.70;;;;;;;16.48;97.86;97061.53;4172775;28;21209;-83
2023/10/30 09:17:40;;;;;;;2.53;1.93;;;;;;;16.51;98.11;97062.03;4179371;28;20622;-83
2023/10/30 09:19:47;;;;;;;4.20;1.60;;;;;;;16.53;99.13;97056.59;4163794;28;20659;-83
2023/10/30 09:21:50;;;;;;;4.43;1.83;;;;;;;16.52;95.93;97058.41;4176181;28;20640;-83
2023/10/30 09:24:00;;;;;;;3.73;1.97;;;;;;;16.53;98.18;97056.59;4160398;28;20663;-84
2023/10/30 09:26:05;;;;;;;3.90;1.50;;;;;;;16.58;97.42;97051.63;4193268;28;20969;-84
2023/10/30 09:28:08;;;;;;;3.47;1.67;;;;;;;16.58;97.48;97047.22;4202702;28;20658;-83
2023/10/30 09:30:12;;;;;;;6.13;1.70;;;;;;;16.68;98.58;97045.19;4177249;28;20636;-83
2023/10/30 09:32:18;;;;;;;4.07;1.50;;;;;;;16.75;97.47;97043.56;4166291;28;21050;-84
2023/10/30 09:34:22;;;;;;;3.50;1.57;;;;;;;16.75;97.79;97033.03;4175523;28;20632;-84
2023/10/30 09:36:29;;;;;;;4.43;1.80;;;;;;;16.80;97.96;97038.59;4160646;28;20636;-84